createdAt,value
2019-05-07T00:00:45.317Z,52.70
2019-05-07T00:02:03.575Z,52.70
2019-05-07T00:03:04.592Z,52.50
2019-05-07T00:04:05.608Z,52.30
2019-05-07T00:05:06.625Z,52.60
2019-05-07T00:06:07.652Z,53.20
2019-05-07T00:07:08.666Z,53.50
2019-05-07T00:08:09.684Z,53.20
2019-05-07T00:09:12.276Z,53.20
2019-05-07T00:10:13.619Z,53.00
2019-05-07T00:11:15.343Z,53.10
2019-05-07T00:12:16.362Z,53.00
2019-05-07T00:13:17.371Z,52.90
2019-05-07T00:14:18.392Z,53.00
2019-05-07T00:15:19.401Z,53.10
2019-05-07T00:16:22.396Z,53.00
2019-05-07T00:17:23.432Z,53.10
2019-05-07T00:18:24.444Z,53.20
2019-05-07T00:19:25.465Z,53.10
2019-05-07T00:20:26.480Z,53.10
2019-05-07T00:21:27.517Z,52.70
2019-05-07T00:22:28.544Z,52.90
2019-05-07T00:23:29.562Z,52.80
2019-05-07T00:24:32.967Z,53.50
2019-05-07T00:25:33.491Z,53.50
2019-05-07T00:26:34.520Z,53.50
2019-05-07T00:27:35.561Z,53.70
2019-05-07T00:28:36.576Z,53.40
2019-05-07T00:29:37.600Z,53.40
2019-05-07T00:30:38.710Z,53.40
2019-05-07T00:31:41.950Z,53.20
2019-05-07T00:32:43.053Z,53.20
2019-05-07T00:33:44.167Z,53.40
2019-05-07T00:34:47.089Z,53.70
2019-05-07T00:35:58.838Z,53.70
2019-05-07T00:37:06.899Z,53.80
2019-05-07T00:38:09.390Z,53.70
2019-05-07T00:39:28.776Z,53.70
2019-05-07T00:40:42.566Z,53.70
2019-05-07T00:41:57.778Z,53.70
2019-05-07T00:43:03.472Z,53.60
2019-05-07T00:44:05.392Z,53.80
2019-05-07T00:45:20.265Z,53.60
2019-05-07T00:46:19.067Z,53.60
2019-05-07T00:47:22.107Z,53.70
2019-05-07T00:48:23.583Z,53.60
2019-05-07T00:49:26.085Z,53.60
2019-05-07T00:50:33.113Z,53.60
2019-05-07T00:51:34.658Z,54.00
2019-05-07T00:52:35.677Z,54.20
2019-05-07T00:53:36.948Z,54.30
2019-05-07T00:54:37.992Z,54.40
2019-05-07T00:55:39.002Z,54.30
2019-05-07T00:56:40.035Z,54.50
2019-05-07T00:57:42.849Z,54.50
2019-05-07T00:58:43.976Z,54.50
2019-05-07T00:59:46.389Z,54.60
2019-05-07T01:00:47.408Z,54.50
2019-05-07T01:01:48.436Z,54.60
2019-05-07T01:02:49.447Z,54.50
2019-05-07T01:03:50.467Z,54.40
2019-05-07T01:04:53.194Z,54.70
2019-05-07T01:05:54.400Z,54.70
2019-05-07T01:06:55.432Z,54.90
2019-05-07T01:07:56.443Z,55.00
2019-05-07T01:08:57.463Z,55.10
2019-05-07T01:09:58.478Z,55.10
2019-05-07T01:11:02.125Z,54.80
2019-05-07T01:12:03.624Z,54.90
2019-05-07T01:13:04.670Z,54.60
2019-05-07T01:14:05.680Z,54.90
2019-05-07T01:15:06.805Z,54.70
2019-05-07T01:16:07.950Z,54.90
2019-05-07T01:17:09.052Z,54.90
2019-05-07T01:18:12.187Z,55.40
2019-05-07T01:19:12.993Z,55.20
2019-05-07T01:20:14.143Z,55.30
2019-05-07T01:21:15.156Z,55.40
2019-05-07T01:22:16.196Z,55.70
2019-05-07T01:23:17.209Z,55.80
2019-05-07T01:24:18.217Z,56.00
2019-05-07T01:25:19.233Z,56.10
2019-05-07T01:26:21.953Z,57.20
2019-05-07T01:27:23.176Z,57.20
2019-05-07T01:28:24.308Z,57.80
2019-05-07T01:29:25.380Z,57.00
2019-05-07T01:30:26.403Z,56.70
2019-05-07T01:31:30.220Z,56.60
2019-05-07T01:32:35.666Z,56.40
2019-05-07T01:33:42.392Z,56.40
2019-05-07T01:35:03.709Z,56.90
2019-05-07T01:36:09.143Z,57.00
2019-05-07T01:37:12.289Z,57.00
2019-05-07T01:38:14.996Z,57.00
2019-05-07T01:39:16.009Z,57.00
2019-05-07T01:40:17.023Z,57.00
2019-05-07T01:41:18.044Z,57.00
2019-05-07T01:42:19.052Z,57.00
2019-05-07T01:43:20.072Z,57.10
2019-05-07T01:44:22.128Z,57.30
2019-05-07T01:45:25.022Z,57.30
2019-05-07T01:46:26.224Z,58.00
2019-05-07T01:47:27.240Z,57.30
2019-05-07T01:48:28.273Z,57.30
2019-05-07T01:49:29.389Z,57.40
2019-05-07T01:50:32.265Z,57.40
2019-05-07T01:51:33.320Z,57.50
2019-05-07T01:52:34.449Z,57.70
2019-05-07T01:53:35.467Z,57.90
2019-05-07T01:54:36.485Z,58.10
2019-05-07T01:55:37.500Z,58.00
2019-05-07T01:56:38.543Z,57.90
2019-05-07T01:57:39.553Z,58.00
2019-05-07T01:58:42.527Z,58.00
2019-05-07T01:59:43.484Z,58.00
2019-05-07T02:00:44.597Z,58.00
2019-05-07T02:01:46.912Z,58.00
2019-05-07T02:02:52.488Z,58.20
2019-05-07T02:03:55.415Z,58.10
2019-05-07T02:05:16.464Z,58.10
2019-05-07T02:06:22.118Z,58.00
2019-05-07T02:07:25.176Z,58.00
2019-05-07T02:08:37.136Z,58.00
2019-05-07T02:09:51.962Z,58.20
2019-05-07T02:10:55.027Z,58.20
2019-05-07T02:12:02.387Z,58.30
2019-05-07T02:13:03.448Z,58.30
2019-05-07T02:14:04.459Z,58.40
2019-05-07T02:15:07.169Z,58.50
2019-05-07T02:16:08.189Z,58.60
2019-05-07T02:17:09.201Z,58.60
2019-05-07T02:18:12.444Z,58.60
2019-05-07T02:19:13.155Z,58.60
2019-05-07T02:20:14.269Z,58.50
2019-05-07T02:21:15.292Z,58.60
2019-05-07T02:22:16.300Z,58.50
2019-05-07T02:23:17.335Z,58.50
2019-05-07T02:24:18.341Z,58.60
2019-05-07T02:25:19.360Z,58.60
2019-05-07T02:26:22.376Z,58.60
2019-05-07T02:27:23.301Z,58.60
2019-05-07T02:28:24.317Z,58.50
2019-05-07T02:29:25.332Z,58.60
2019-05-07T02:30:26.346Z,58.70
2019-05-07T02:31:27.366Z,58.70
2019-05-07T02:32:28.382Z,58.70
2019-05-07T02:33:29.408Z,58.70
2019-05-07T02:34:30.437Z,58.80
2019-05-07T02:35:33.308Z,58.70
2019-05-07T02:36:34.984Z,58.90
2019-05-07T02:37:48.361Z,58.90
2019-05-07T02:38:48.557Z,59.40
2019-05-07T02:39:53.249Z,58.90
2019-05-07T02:41:08.471Z,59.00
2019-05-07T02:42:09.494Z,59.00
2019-05-07T02:43:13.671Z,58.90
2019-05-07T02:44:15.966Z,59.00
2019-05-07T02:45:35.494Z,59.30
2019-05-07T02:46:43.399Z,59.30
2019-05-07T02:47:44.111Z,59.40
2019-05-07T02:48:47.113Z,59.40
2019-05-07T02:49:53.370Z,59.50
2019-05-07T02:51:03.912Z,59.50
2019-05-07T02:52:08.404Z,59.50
2019-05-07T02:53:27.945Z,59.60
2019-05-07T02:54:47.511Z,59.50
2019-05-07T02:55:56.214Z,59.70
2019-05-07T02:56:57.221Z,59.80
2019-05-07T02:57:58.270Z,59.70
2019-05-07T02:58:59.417Z,59.80
2019-05-07T03:00:04.150Z,59.80
2019-05-07T03:01:04.715Z,59.90
2019-05-07T03:02:06.336Z,60.00
2019-05-07T03:03:07.350Z,60.00
2019-05-07T03:04:08.373Z,60.00
2019-05-07T03:05:09.393Z,60.00
2019-05-07T03:06:13.295Z,60.00
2019-05-07T03:07:13.453Z,60.00
2019-05-07T03:08:14.552Z,60.00
2019-05-07T03:09:15.575Z,60.00
2019-05-07T03:10:16.601Z,60.00
2019-05-07T03:11:17.630Z,60.10
2019-05-07T03:12:18.726Z,60.10
2019-05-07T03:13:23.214Z,60.40
2019-05-07T03:14:23.297Z,60.50
2019-05-07T03:15:24.692Z,60.40
2019-05-07T03:16:38.550Z,60.60
2019-05-07T03:17:28.634Z,60.10
2019-05-07T03:18:33.129Z,60.80
2019-05-07T03:19:34.505Z,60.70
2019-05-07T03:20:37.417Z,60.80
2019-05-07T03:21:46.361Z,60.90
2019-05-07T03:22:47.475Z,61.10
2019-05-07T03:23:56.222Z,61.90
2019-05-07T03:25:03.261Z,61.60
2019-05-07T03:26:15.302Z,61.10
2019-05-07T03:27:16.325Z,61.90
2019-05-07T03:28:18.438Z,61.40
2019-05-07T03:29:23.903Z,61.40
2019-05-07T03:30:26.752Z,61.40
2019-05-07T03:31:48.270Z,61.50
2019-05-07T03:32:56.126Z,61.40
2019-05-07T03:34:06.821Z,61.60
2019-05-07T03:35:16.515Z,61.60
2019-05-07T03:36:19.845Z,61.60
2019-05-07T03:37:23.483Z,61.50
2019-05-07T03:38:24.809Z,61.80
2019-05-07T03:39:25.967Z,61.80
2019-05-07T03:40:27.868Z,61.70
2019-05-07T03:41:28.954Z,61.70
2019-05-07T03:42:33.495Z,61.70
2019-05-07T03:43:34.706Z,61.60
2019-05-07T03:44:46.781Z,61.70
2019-05-07T03:45:50.297Z,61.60
2019-05-07T03:47:01.094Z,61.70
2019-05-07T03:48:13.663Z,61.80
2019-05-07T03:49:33.881Z,61.70
2019-05-07T03:50:33.975Z,61.70
2019-05-07T03:51:35.373Z,61.70
2019-05-07T03:52:36.388Z,61.70
2019-05-07T03:53:37.399Z,61.80
2019-05-07T03:54:39.440Z,61.80
2019-05-07T03:55:43.920Z,61.70
2019-05-07T03:56:43.640Z,61.80
2019-05-07T03:57:44.897Z,62.30
2019-05-07T03:58:45.913Z,62.70
2019-05-07T03:59:47.036Z,62.00
2019-05-07T04:00:48.217Z,62.10
2019-05-07T04:01:49.233Z,61.90
2019-05-07T04:02:52.744Z,61.80
2019-05-07T04:03:53.420Z,61.80
2019-05-07T04:04:54.482Z,61.90
2019-05-07T04:05:55.501Z,61.80
2019-05-07T04:06:56.513Z,61.80
2019-05-07T04:07:57.541Z,61.80
2019-05-07T04:08:58.543Z,61.80
2019-05-07T04:09:59.574Z,61.80
2019-05-07T04:11:03.724Z,61.90
2019-05-07T04:12:04.166Z,61.80
2019-05-07T04:13:05.336Z,61.90
2019-05-07T04:14:06.357Z,61.90
2019-05-07T04:15:07.494Z,62.00
2019-05-07T04:16:08.509Z,62.30
2019-05-07T04:17:17.249Z,62.50
2019-05-07T04:18:13.317Z,61.90
2019-05-07T04:19:14.561Z,61.90
2019-05-07T04:20:15.693Z,62.00
2019-05-07T04:21:16.723Z,61.90
2019-05-07T04:22:18.841Z,62.00
2019-05-07T04:23:22.954Z,61.90
2019-05-07T04:24:33.550Z,62.00
2019-05-07T04:25:54.671Z,62.00
2019-05-07T04:27:03.041Z,62.00
2019-05-07T04:28:23.599Z,62.00
2019-05-07T04:29:24.577Z,62.00
2019-05-07T04:30:26.499Z,62.10
2019-05-07T04:31:29.524Z,62.00
2019-05-07T04:32:33.419Z,62.00
2019-05-07T04:33:36.673Z,62.00
2019-05-07T04:34:45.202Z,62.00
2019-05-07T04:35:48.126Z,62.00
2019-05-07T04:36:49.241Z,62.10
2019-05-07T04:37:53.136Z,62.00
2019-05-07T04:38:53.410Z,62.00
2019-05-07T04:39:54.598Z,62.00
2019-05-07T04:40:55.621Z,62.00
2019-05-07T04:41:56.637Z,62.00
2019-05-07T04:42:57.662Z,62.00
2019-05-07T04:43:59.420Z,62.10
2019-05-07T04:45:03.904Z,62.50
2019-05-07T04:46:03.577Z,62.60
2019-05-07T04:47:05.455Z,62.60
2019-05-07T04:48:06.484Z,62.50
2019-05-07T04:49:07.506Z,62.70
2019-05-07T04:50:13.640Z,62.80
2019-05-07T04:51:15.372Z,62.90
2019-05-07T04:52:18.381Z,63.00
2019-05-07T04:53:19.406Z,63.10
2019-05-07T04:54:23.441Z,63.30
2019-05-07T04:55:23.351Z,63.10
2019-05-07T04:56:24.389Z,63.00
2019-05-07T04:57:25.427Z,63.60
2019-05-07T04:58:26.864Z,63.80
2019-05-07T04:59:27.980Z,63.80
2019-05-07T05:00:29.102Z,63.90
2019-05-07T05:01:32.857Z,63.60
2019-05-07T05:02:36.056Z,63.20
2019-05-07T05:03:39.249Z,62.90
2019-05-07T05:04:40.042Z,62.70
2019-05-07T05:05:43.458Z,62.70
2019-05-07T05:06:44.057Z,62.80
2019-05-07T05:07:45.076Z,62.50
2019-05-07T05:08:46.111Z,62.60
2019-05-07T05:09:47.221Z,62.70
2019-05-07T05:10:48.269Z,62.50
2019-05-07T05:11:49.290Z,62.10
2019-05-07T05:12:50.298Z,62.10
2019-05-07T05:13:53.227Z,62.10
2019-05-07T05:14:54.239Z,62.10
2019-05-07T05:15:55.260Z,62.10
2019-05-07T05:16:56.282Z,62.10
2019-05-07T05:17:57.291Z,62.10
2019-05-07T05:18:58.304Z,62.10
2019-05-07T05:20:02.989Z,62.20
2019-05-07T05:21:12.083Z,62.20
2019-05-07T05:22:22.178Z,61.70
2019-05-07T05:23:32.272Z,61.10
2019-05-07T05:24:38.261Z,60.90
2019-05-07T05:25:42.963Z,60.90
2019-05-07T05:26:43.721Z,61.20
2019-05-07T05:27:44.749Z,61.10
2019-05-07T05:28:45.779Z,60.90
2019-05-07T05:29:46.792Z,61.00
2019-05-07T05:30:52.872Z,61.00
2019-05-07T05:31:54.026Z,61.20
2019-05-07T05:32:55.046Z,61.10
2019-05-07T05:33:56.098Z,61.00
2019-05-07T05:34:59.013Z,60.60
2019-05-07T05:36:00.138Z,60.20
2019-05-07T05:37:02.435Z,60.00
2019-05-07T05:38:04.183Z,59.90
2019-05-07T05:39:06.909Z,59.80
2019-05-07T05:40:09.540Z,59.30
2019-05-07T05:41:12.528Z,59.00
2019-05-07T05:42:18.249Z,59.00
2019-05-07T05:43:22.343Z,58.70
2019-05-07T05:44:32.099Z,57.90
2019-05-07T05:45:35.162Z,57.60
2019-05-07T05:46:36.192Z,58.10
2019-05-07T05:47:37.212Z,57.00
2019-05-07T05:48:38.241Z,56.90
2019-05-07T05:49:39.252Z,56.70
2019-05-07T05:50:58.868Z,56.40
2019-05-07T05:52:16.948Z,56.30
2019-05-07T05:53:32.737Z,56.00
2019-05-07T05:54:42.642Z,56.00
2019-05-07T05:55:44.053Z,55.80
2019-05-07T05:56:51.834Z,55.50
2019-05-07T05:58:09.428Z,54.50
2019-05-07T05:59:24.095Z,55.10
2019-05-07T06:00:37.009Z,54.40
2019-05-07T06:01:42.819Z,54.30
2019-05-07T06:02:48.346Z,54.30
2019-05-07T06:04:07.920Z,54.30
2019-05-07T06:05:27.604Z,54.40
2019-05-07T06:06:33.444Z,54.40
2019-05-07T06:07:36.458Z,54.30
2019-05-07T06:08:43.400Z,54.20
2019-05-07T06:09:52.733Z,54.30
2019-05-07T06:11:08.192Z,54.80
2019-05-07T06:12:27.708Z,55.30
2019-05-07T06:13:32.362Z,55.10
2019-05-07T06:14:35.397Z,55.10
2019-05-07T06:15:55.568Z,55.00
2019-05-07T06:17:15.263Z,54.90
2019-05-07T06:18:23.789Z,54.70
2019-05-07T06:19:25.795Z,54.40
2019-05-07T06:20:32.090Z,54.30
2019-05-07T06:21:53.240Z,54.40
2019-05-07T06:23:14.493Z,54.40
2019-05-07T06:24:33.910Z,54.20
2019-05-07T06:25:35.025Z,54.80
2019-05-07T06:26:36.057Z,54.40
2019-05-07T06:27:37.437Z,54.40
2019-05-07T06:28:38.462Z,54.40
2019-05-07T06:29:39.477Z,54.40
2019-05-07T06:30:41.796Z,54.30
2019-05-07T06:31:44.921Z,54.30
2019-05-07T06:32:45.950Z,54.30
2019-05-07T06:33:46.979Z,54.30
2019-05-07T06:34:47.998Z,54.30
2019-05-07T06:35:49.025Z,54.30
2019-05-07T06:36:50.037Z,54.30
2019-05-07T06:37:52.185Z,54.50
2019-05-07T06:38:55.296Z,54.60
2019-05-07T06:40:13.309Z,54.30
2019-05-07T06:41:16.229Z,54.20
2019-05-07T06:42:24.740Z,54.20
2019-05-07T06:43:32.452Z,54.30
2019-05-07T06:44:33.364Z,54.30
2019-05-07T06:45:36.291Z,54.20
2019-05-07T06:46:38.794Z,54.00
2019-05-07T06:47:40.021Z,53.90
2019-05-07T06:48:43.718Z,54.00
2019-05-07T06:49:44.083Z,54.00
2019-05-07T06:50:57.621Z,53.90
2019-05-07T06:51:58.636Z,53.80
2019-05-07T06:52:59.658Z,53.70
2019-05-07T06:54:02.622Z,53.30
2019-05-07T06:55:04.594Z,53.90
2019-05-07T06:56:05.708Z,54.20
2019-05-07T06:57:06.719Z,53.70
2019-05-07T06:58:08.752Z,54.10
2019-05-07T06:59:12.962Z,53.40
2019-05-07T07:00:19.106Z,53.30
2019-05-07T07:01:24.532Z,53.60
2019-05-07T07:02:36.930Z,53.50
2019-05-07T07:03:41.894Z,52.90
2019-05-07T07:04:44.906Z,53.30
2019-05-07T07:05:47.825Z,53.90
2019-05-07T07:06:52.500Z,53.70
2019-05-07T07:07:55.684Z,53.00
2019-05-07T07:09:01.925Z,52.80
2019-05-07T07:10:09.356Z,52.80
2019-05-07T07:11:29.257Z,52.60
2019-05-07T07:12:33.286Z,52.40
2019-05-07T07:13:34.340Z,52.30
2019-05-07T07:14:35.368Z,52.10
2019-05-07T07:15:36.392Z,51.80
2019-05-07T07:16:37.412Z,51.50
2019-05-07T07:17:38.420Z,51.70
2019-05-07T07:18:51.695Z,52.10
2019-05-07T07:19:42.854Z,52.60
2019-05-07T07:20:44.186Z,52.20
2019-05-07T07:21:45.209Z,51.90
2019-05-07T07:22:46.232Z,51.70
2019-05-07T07:23:47.260Z,51.70
2019-05-07T07:24:48.268Z,51.70
2019-05-07T07:25:49.382Z,51.60
2019-05-07T07:26:52.647Z,51.70
2019-05-07T07:27:53.316Z,50.90
2019-05-07T07:28:54.338Z,51.00
2019-05-07T07:29:57.264Z,51.10
2019-05-07T07:31:12.978Z,51.50
2019-05-07T07:32:16.184Z,51.00
2019-05-07T07:33:19.121Z,51.10
2019-05-07T07:34:22.567Z,51.50
2019-05-07T07:35:23.094Z,51.40
2019-05-07T07:36:26.012Z,51.30
2019-05-07T07:37:34.733Z,51.10
2019-05-07T07:38:35.754Z,51.10
2019-05-07T07:39:36.780Z,51.70
2019-05-07T07:40:42.334Z,51.10
2019-05-07T07:41:48.288Z,51.10
2019-05-07T07:42:49.306Z,51.20
2019-05-07T07:43:52.433Z,51.30
2019-05-07T07:45:03.964Z,50.60
2019-05-07T07:46:04.989Z,50.70
2019-05-07T07:47:06.000Z,50.10
2019-05-07T07:48:07.024Z,51.20
2019-05-07T07:49:12.445Z,50.30
2019-05-07T07:50:12.946Z,50.50
2019-05-07T07:51:14.408Z,51.20
2019-05-07T07:52:15.521Z,51.80
2019-05-07T07:53:16.763Z,50.10
2019-05-07T07:54:17.793Z,50.00
2019-05-07T07:55:22.257Z,50.40
2019-05-07T07:56:48.403Z,50.40
2019-05-07T07:57:52.122Z,49.90
2019-05-07T07:58:55.312Z,49.10
2019-05-07T07:59:58.232Z,49.10
2019-05-07T08:01:06.718Z,48.90
2019-05-07T08:02:09.630Z,48.20
2019-05-07T08:03:13.351Z,48.20
2019-05-07T08:04:14.765Z,47.70
2019-05-07T08:05:15.780Z,48.00
2019-05-07T08:06:16.812Z,48.10
2019-05-07T08:07:17.820Z,47.30
2019-05-07T08:08:18.847Z,47.30
2019-05-07T08:09:22.267Z,47.30
2019-05-07T08:10:22.797Z,47.40
2019-05-07T08:11:23.812Z,47.40
2019-05-07T08:12:24.839Z,47.40
2019-05-07T08:13:25.848Z,47.50
2019-05-07T08:14:26.881Z,46.50
2019-05-07T08:15:27.905Z,46.60
2019-05-07T08:16:28.962Z,46.40
2019-05-07T08:17:30.063Z,46.60
2019-05-07T08:18:32.776Z,45.40
2019-05-07T08:19:34.022Z,45.80
2019-05-07T08:20:35.032Z,45.90
2019-05-07T08:21:36.066Z,45.30
2019-05-07T08:22:37.089Z,45.50
2019-05-07T08:23:38.108Z,44.80
2019-05-07T08:24:39.149Z,45.20
2019-05-07T08:25:48.773Z,45.20
2019-05-07T08:26:51.797Z,45.10
2019-05-07T08:27:52.988Z,45.40
2019-05-07T08:28:54.101Z,44.80
2019-05-07T08:29:55.142Z,44.60
2019-05-07T08:30:58.052Z,44.40
2019-05-07T08:32:04.830Z,44.10
2019-05-07T08:33:09.722Z,44.60
2019-05-07T08:34:15.230Z,45.20
2019-05-07T08:35:18.262Z,44.50
2019-05-07T08:36:19.298Z,44.60
2019-05-07T08:37:24.234Z,43.40
2019-05-07T08:38:23.437Z,43.70
2019-05-07T08:39:25.172Z,43.40
2019-05-07T08:40:26.544Z,43.40
2019-05-07T08:41:27.664Z,43.50
2019-05-07T08:42:28.695Z,43.80
2019-05-07T08:43:29.708Z,44.10
2019-05-07T08:44:38.541Z,43.50
2019-05-07T08:45:53.195Z,43.60
2019-05-07T08:46:56.113Z,43.60
2019-05-07T08:48:12.601Z,43.70
2019-05-07T08:49:15.597Z,42.90
2019-05-07T08:50:16.616Z,41.40
2019-05-07T08:51:17.636Z,41.70
2019-05-07T08:52:18.648Z,42.30
2019-05-07T08:53:19.673Z,42.60
2019-05-07T08:54:22.597Z,42.30
2019-05-07T08:55:23.631Z,42.10
2019-05-07T08:56:24.657Z,41.80
2019-05-07T08:57:25.670Z,41.90
2019-05-07T08:58:26.988Z,41.80
2019-05-07T08:59:29.216Z,41.80
2019-05-07T09:00:32.432Z,41.00
2019-05-07T09:01:34.984Z,40.80
2019-05-07T09:02:35.997Z,39.50
2019-05-07T09:03:43.459Z,40.70
2019-05-07T09:04:44.666Z,39.60
2019-05-07T09:05:45.692Z,39.50
2019-05-07T09:06:46.710Z,39.00
2019-05-07T09:07:47.739Z,38.50
2019-05-07T09:08:48.757Z,39.10
2019-05-07T09:09:52.069Z,38.90
2019-05-07T09:10:52.789Z,38.40
2019-05-07T09:11:53.812Z,38.40
2019-05-07T09:12:54.825Z,38.40
2019-05-07T09:13:55.844Z,37.80
2019-05-07T09:14:56.864Z,35.80
2019-05-07T09:15:57.901Z,36.50
2019-05-07T09:16:58.924Z,37.20
2019-05-07T09:18:01.890Z,37.40
2019-05-07T09:19:04.268Z,35.90
2019-05-07T09:20:09.119Z,35.00
2019-05-07T09:21:09.243Z,35.80
2019-05-07T09:22:12.533Z,36.00
2019-05-07T09:23:13.520Z,36.40
2019-05-07T09:24:14.582Z,36.70
2019-05-07T09:25:15.659Z,37.10
2019-05-07T09:26:18.595Z,36.90
2019-05-07T09:27:22.412Z,37.90
2019-05-07T09:28:24.328Z,38.10
2019-05-07T09:29:32.373Z,37.80
2019-05-07T09:30:52.295Z,38.00
2019-05-07T09:32:13.296Z,36.90
2019-05-07T09:33:16.217Z,37.50
2019-05-07T09:34:32.712Z,37.60
2019-05-07T09:35:42.407Z,36.80
2019-05-07T09:37:03.604Z,37.30
2019-05-07T09:38:04.624Z,36.70
2019-05-07T09:39:06.240Z,37.10
2019-05-07T09:40:07.561Z,37.20
2019-05-07T09:41:12.077Z,37.00
2019-05-07T09:42:13.311Z,36.80
2019-05-07T09:43:14.324Z,36.80
2019-05-07T09:44:15.434Z,36.90
2019-05-07T09:45:16.760Z,37.00
2019-05-07T09:46:20.082Z,37.40
2019-05-07T09:47:21.914Z,37.70
2019-05-07T09:48:23.140Z,38.00
2019-05-07T09:49:24.160Z,36.40
2019-05-07T09:50:25.194Z,36.50
2019-05-07T09:51:26.228Z,35.90
2019-05-07T09:52:27.240Z,35.70
2019-05-07T09:53:28.321Z,35.00
2019-05-07T09:54:29.341Z,35.10
2019-05-07T09:55:32.480Z,35.00
2019-05-07T09:56:33.436Z,35.00
2019-05-07T09:57:34.870Z,35.20
2019-05-07T09:58:39.072Z,35.10
2019-05-07T09:59:39.111Z,34.70
2019-05-07T10:00:42.279Z,34.50
2019-05-07T10:01:43.166Z,35.00
2019-05-07T10:02:44.278Z,35.90
2019-05-07T10:03:45.298Z,34.70
2019-05-07T10:04:46.317Z,34.80
2019-05-07T10:05:47.336Z,34.80
2019-05-07T10:06:48.367Z,35.00
2019-05-07T10:07:49.397Z,34.20
2019-05-07T10:08:52.376Z,34.90
2019-05-07T10:09:53.437Z,34.60
2019-05-07T10:10:54.546Z,33.60
2019-05-07T10:12:03.363Z,33.70
2019-05-07T10:13:24.459Z,33.90
2019-05-07T10:14:25.476Z,34.30
2019-05-07T10:15:26.584Z,34.20
2019-05-07T10:16:38.582Z,33.70
2019-05-07T10:17:47.380Z,33.80
2019-05-07T10:18:48.496Z,33.80
2019-05-07T10:19:49.521Z,34.00
2019-05-07T10:20:52.157Z,34.00
2019-05-07T10:21:53.417Z,34.60
2019-05-07T10:22:54.532Z,34.10
2019-05-07T10:23:55.821Z,34.50
2019-05-07T10:24:56.839Z,34.20
2019-05-07T10:25:58.360Z,33.70
2019-05-07T10:27:02.092Z,32.40
2019-05-07T10:28:02.905Z,32.60
2019-05-07T10:29:03.920Z,31.80
2019-05-07T10:30:05.140Z,32.00
2019-05-07T10:31:06.499Z,31.80
2019-05-07T10:32:07.527Z,32.30
2019-05-07T10:33:08.540Z,33.00
2019-05-07T10:34:09.557Z,33.30
2019-05-07T10:35:12.767Z,31.80
2019-05-07T10:36:14.088Z,32.00
2019-05-07T10:37:15.246Z,31.50
2019-05-07T10:38:16.356Z,32.20
2019-05-07T10:39:17.470Z,32.40
2019-05-07T10:40:19.284Z,31.40
2019-05-07T10:41:22.248Z,31.60
2019-05-07T10:42:23.249Z,31.60
2019-05-07T10:43:24.255Z,31.60
2019-05-07T10:44:27.175Z,32.40
2019-05-07T10:45:32.141Z,30.90
2019-05-07T10:46:42.287Z,30.40
2019-05-07T10:47:47.893Z,31.00
2019-05-07T10:48:50.806Z,31.40
2019-05-07T10:49:53.729Z,30.50
2019-05-07T10:50:59.636Z,30.90
2019-05-07T10:52:02.139Z,31.40
2019-05-07T10:53:03.291Z,31.30
2019-05-07T10:54:04.396Z,31.50
2019-05-07T10:55:05.617Z,30.80
2019-05-07T10:56:06.732Z,31.20
2019-05-07T10:57:07.745Z,32.80
2019-05-07T10:58:08.873Z,31.50
2019-05-07T10:59:12.050Z,31.30
2019-05-07T11:00:16.222Z,31.90
2019-05-07T11:01:19.141Z,31.30
2019-05-07T11:02:22.060Z,31.30
2019-05-07T11:03:23.089Z,31.30
2019-05-07T11:04:24.103Z,31.10
2019-05-07T11:05:25.429Z,31.00
2019-05-07T11:06:26.449Z,31.40
2019-05-07T11:07:27.474Z,30.90
2019-05-07T11:08:28.504Z,30.40
2019-05-07T11:09:29.814Z,30.60
2019-05-07T11:10:32.610Z,30.80
2019-05-07T11:11:33.727Z,30.80
2019-05-07T11:12:34.776Z,30.70
2019-05-07T11:13:35.873Z,30.80
2019-05-07T11:14:36.888Z,30.70
2019-05-07T11:15:38.502Z,31.50
2019-05-07T11:16:43.081Z,30.50
2019-05-07T11:17:58.086Z,31.20
2019-05-07T11:18:59.104Z,30.80
2019-05-07T11:20:00.150Z,30.90
2019-05-07T11:21:02.978Z,30.10
2019-05-07T11:22:04.184Z,29.70
2019-05-07T11:23:05.208Z,29.70
2019-05-07T11:24:06.221Z,29.80
2019-05-07T11:25:07.447Z,29.70
2019-05-07T11:26:08.813Z,29.50
2019-05-07T11:27:11.785Z,29.60
2019-05-07T11:28:12.756Z,29.50
2019-05-07T11:29:13.780Z,29.80
2019-05-07T11:30:15.404Z,28.90
2019-05-07T11:31:16.423Z,29.20
2019-05-07T11:32:17.435Z,29.30
2019-05-07T11:33:18.469Z,29.50
2019-05-07T11:34:19.491Z,30.00
2019-05-07T11:35:22.739Z,29.20
2019-05-07T11:36:23.432Z,29.30
2019-05-07T11:37:24.486Z,29.30
2019-05-07T11:38:25.515Z,28.70
2019-05-07T11:39:26.534Z,28.90
2019-05-07T11:40:27.649Z,28.90
2019-05-07T11:41:33.369Z,29.20
2019-05-07T11:42:45.288Z,29.10
2019-05-07T11:43:54.112Z,28.90
2019-05-07T11:44:55.182Z,28.90
2019-05-07T11:45:59.109Z,29.10
2019-05-07T11:47:14.077Z,28.70
2019-05-07T11:48:16.336Z,28.50
2019-05-07T11:49:25.096Z,28.50
2019-05-07T11:50:28.006Z,28.60
2019-05-07T11:51:36.537Z,28.40
2019-05-07T11:52:42.553Z,28.40
2019-05-07T11:54:02.325Z,29.00
2019-05-07T11:55:04.124Z,29.00
2019-05-07T11:56:05.243Z,28.90
2019-05-07T11:57:06.265Z,29.70
2019-05-07T11:58:07.284Z,29.10
2019-05-07T11:59:08.309Z,28.70
2019-05-07T12:00:12.876Z,27.50
2019-05-07T12:01:15.948Z,28.70
2019-05-07T12:02:16.965Z,28.70
2019-05-07T12:03:17.987Z,29.40
2019-05-07T12:04:19.000Z,30.10
2019-05-07T12:05:20.020Z,28.80
2019-05-07T12:06:21.654Z,28.80
2019-05-07T12:07:22.746Z,29.90
2019-05-07T12:08:37.631Z,29.20
2019-05-07T12:09:26.973Z,28.40
2019-05-07T12:10:28.258Z,28.80
2019-05-07T12:11:29.267Z,28.80
2019-05-07T12:12:32.460Z,28.00
2019-05-07T12:13:33.228Z,27.80
2019-05-07T12:14:34.962Z,27.10
2019-05-07T12:15:36.480Z,27.30
2019-05-07T12:16:37.508Z,27.80
2019-05-07T12:17:38.523Z,27.20
2019-05-07T12:18:39.528Z,27.10
2019-05-07T12:19:43.690Z,27.70
2019-05-07T12:20:43.480Z,28.20
2019-05-07T12:21:44.504Z,28.70
2019-05-07T12:22:45.530Z,28.80
2019-05-07T12:23:46.551Z,28.50
2019-05-07T12:24:47.569Z,28.90
2019-05-07T12:25:48.584Z,29.10
2019-05-07T12:26:49.601Z,29.20
2019-05-07T12:27:51.212Z,28.80
2019-05-07T12:28:52.334Z,28.80
2019-05-07T12:29:53.355Z,28.90
2019-05-07T12:31:02.153Z,29.00
2019-05-07T12:32:05.099Z,29.10
2019-05-07T12:33:12.379Z,29.30
2019-05-07T12:34:17.958Z,29.40
2019-05-07T12:35:18.972Z,28.70
2019-05-07T12:36:20.093Z,29.00
2019-05-07T12:37:22.518Z,29.40
2019-05-07T12:38:23.629Z,29.20
2019-05-07T12:39:25.875Z,29.20
2019-05-07T12:40:26.876Z,29.20
2019-05-07T12:41:33.808Z,28.70
2019-05-07T12:42:34.185Z,28.70
2019-05-07T12:43:35.210Z,28.70
2019-05-07T12:44:36.237Z,28.70
2019-05-07T12:45:37.260Z,28.60
2019-05-07T12:46:38.284Z,28.60
2019-05-07T12:47:39.292Z,28.60
2019-05-07T12:48:40.325Z,28.60
2019-05-07T12:49:42.904Z,28.60
2019-05-07T12:50:44.072Z,28.60
2019-05-07T12:51:46.994Z,28.60
2019-05-07T12:52:55.482Z,28.70
2019-05-07T12:53:58.496Z,29.20
2019-05-07T12:55:03.256Z,28.80
2019-05-07T12:56:05.057Z,28.70
2019-05-07T12:57:06.070Z,28.70
2019-05-07T12:58:07.116Z,28.70
2019-05-07T12:59:08.152Z,28.80
2019-05-07T13:00:28.133Z,28.90
2019-05-07T13:01:32.794Z,29.00
2019-05-07T13:02:40.764Z,28.00
2019-05-07T13:03:43.536Z,27.70
2019-05-07T13:04:44.568Z,27.50
2019-05-07T13:05:45.585Z,27.40
2019-05-07T13:06:48.508Z,28.40
2019-05-07T13:07:50.128Z,28.50
2019-05-07T13:08:52.220Z,27.30
2019-05-07T13:09:53.782Z,26.90
2019-05-07T13:10:54.808Z,27.50
2019-05-07T13:11:55.823Z,27.60
2019-05-07T13:12:56.845Z,27.70
2019-05-07T13:13:57.869Z,26.30
2019-05-07T13:14:58.900Z,26.70
2019-05-07T13:16:02.299Z,27.10
2019-05-07T13:17:03.046Z,26.80
2019-05-07T13:18:04.048Z,26.80
2019-05-07T13:19:05.171Z,27.10
2019-05-07T13:20:06.635Z,26.70
2019-05-07T13:21:07.720Z,26.80
2019-05-07T13:22:08.835Z,26.50
2019-05-07T13:23:11.843Z,26.70
2019-05-07T13:24:14.886Z,27.10
2019-05-07T13:25:15.692Z,26.80
2019-05-07T13:26:16.709Z,26.50
2019-05-07T13:27:17.720Z,26.50
2019-05-07T13:28:18.740Z,26.70
2019-05-07T13:29:21.763Z,26.30
2019-05-07T13:30:22.882Z,25.80
2019-05-07T13:31:24.101Z,25.70
2019-05-07T13:32:26.417Z,25.60
2019-05-07T13:33:32.026Z,25.40
2019-05-07T13:34:34.207Z,25.90
2019-05-07T13:35:35.980Z,25.70
2019-05-07T13:36:38.902Z,25.00